createdAt,value
2019-01-20T00:00:27.844Z,14.73
2019-01-20T00:02:55.256Z,14.33
2019-01-20T00:05:22.691Z,13.90
2019-01-20T00:07:50.103Z,13.77
2019-01-20T00:10:17.537Z,14.53
2019-01-20T00:12:44.949Z,14.70
2019-01-20T00:15:12.364Z,14.40
2019-01-20T00:17:39.781Z,13.83
2019-01-20T00:20:07.242Z,15.00
2019-01-20T00:22:34.617Z,15.20
2019-01-20T00:25:02.036Z,15.13
2019-01-20T00:27:29.434Z,14.80
2019-01-20T00:29:56.840Z,15.13
2019-01-20T00:32:27.031Z,15.33
2019-01-20T00:34:54.514Z,14.87
2019-01-20T00:37:22.129Z,15.50
2019-01-20T00:39:49.552Z,15.07
2019-01-20T00:42:16.959Z,16.03
2019-01-20T00:44:44.391Z,15.40
2019-01-20T00:47:11.796Z,15.63
2019-01-20T00:49:39.215Z,15.27
2019-01-20T00:52:06.610Z,15.23
2019-01-20T00:54:34.036Z,15.53
2019-01-20T00:57:01.469Z,15.63
2019-01-20T00:59:28.920Z,15.60
2019-01-20T01:01:56.324Z,15.27
2019-01-20T01:04:23.718Z,15.53
2019-01-20T01:06:51.136Z,16.07
2019-01-20T01:09:18.550Z,15.47
2019-01-20T01:11:45.978Z,16.53
2019-01-20T01:14:13.426Z,16.03
2019-01-20T01:16:40.837Z,17.03
2019-01-20T01:19:08.281Z,17.13
2019-01-20T01:21:35.689Z,15.73
2019-01-20T01:24:03.109Z,17.50
2019-01-20T01:26:30.508Z,16.73
2019-01-20T01:28:57.929Z,17.10
2019-01-20T01:31:25.320Z,16.07
2019-01-20T01:33:52.748Z,16.37
2019-01-20T01:36:20.178Z,16.67
2019-01-20T01:38:47.614Z,16.30
2019-01-20T01:41:15.022Z,17.50
2019-01-20T01:43:42.447Z,15.57
2019-01-20T01:46:09.872Z,16.83
2019-01-20T01:48:37.287Z,17.73
2019-01-20T01:51:04.722Z,16.73
2019-01-20T01:53:33.398Z,15.70
2019-01-20T01:55:59.562Z,16.53
2019-01-20T01:58:26.957Z,16.43
2019-01-20T02:00:54.397Z,17.47
2019-01-20T02:03:21.820Z,16.20
2019-01-20T02:05:49.227Z,16.87
2019-01-20T02:08:16.652Z,18.17
2019-01-20T02:10:44.066Z,17.87
2019-01-20T02:13:11.483Z,16.83
2019-01-20T02:15:38.899Z,16.70
2019-01-20T02:18:06.329Z,16.33
2019-01-20T02:20:33.760Z,16.50
2019-01-20T02:23:01.158Z,17.67
2019-01-20T02:25:28.587Z,17.43
2019-01-20T02:27:56.013Z,16.83
2019-01-20T02:30:23.438Z,17.27
2019-01-20T02:32:50.887Z,18.23
2019-01-20T02:35:18.294Z,18.33
2019-01-20T02:37:45.702Z,17.30
2019-01-20T02:40:13.149Z,18.73
2019-01-20T02:42:40.552Z,17.90
2019-01-20T02:45:07.984Z,17.63
2019-01-20T02:47:35.389Z,17.27
2019-01-20T02:50:02.832Z,16.83
2019-01-20T02:52:30.230Z,17.97
2019-01-20T02:54:57.684Z,18.50
2019-01-20T02:57:25.077Z,18.23
2019-01-20T02:59:52.512Z,17.87
2019-01-20T03:02:19.903Z,18.73
2019-01-20T03:04:47.309Z,18.83
2019-01-20T03:07:16.164Z,18.80
2019-01-20T03:09:42.308Z,18.07
2019-01-20T03:12:09.557Z,18.83
2019-01-20T03:14:36.971Z,19.03
2019-01-20T03:17:04.373Z,18.33
2019-01-20T03:19:32.055Z,18.13
2019-01-20T03:21:59.468Z,19.63
2019-01-20T03:24:26.913Z,17.53
2019-01-20T03:26:54.324Z,18.30
2019-01-20T03:29:21.716Z,18.53
2019-01-20T03:31:49.150Z,18.13
2019-01-20T03:34:16.546Z,19.37
2019-01-20T03:36:44.027Z,19.07
2019-01-20T03:39:11.471Z,19.90
2019-01-20T03:41:38.861Z,18.93
2019-01-20T03:44:06.284Z,18.63
2019-01-20T03:46:33.711Z,18.63
2019-01-20T03:49:01.149Z,17.90
2019-01-20T03:51:28.561Z,19.00
2019-01-20T03:53:55.963Z,18.33
2019-01-20T03:56:23.383Z,19.63
2019-01-20T03:58:50.780Z,20.50
2019-01-20T04:04:46.762Z,19.43
2019-01-20T04:07:16.290Z,18.43
2019-01-20T04:09:43.687Z,17.77
2019-01-20T04:12:11.125Z,19.17
2019-01-20T04:14:38.525Z,20.07
2019-01-20T04:17:05.970Z,19.73
2019-01-20T04:19:33.377Z,20.33
2019-01-20T04:22:00.841Z,19.33
2019-01-20T04:24:28.249Z,19.00
2019-01-20T04:26:55.679Z,20.13
2019-01-20T04:29:23.117Z,20.20
2019-01-20T04:31:50.544Z,19.17
2019-01-20T04:34:17.943Z,20.27
2019-01-20T04:36:45.430Z,19.87
2019-01-20T04:39:12.887Z,18.93
2019-01-20T04:41:40.290Z,20.23
2019-01-20T04:44:07.711Z,19.70
2019-01-20T04:46:35.110Z,19.73
2019-01-20T04:49:02.537Z,19.80
2019-01-20T04:51:29.957Z,21.47
2019-01-20T04:53:57.361Z,20.17
2019-01-20T04:56:24.780Z,20.60
2019-01-20T04:58:52.262Z,20.20
2019-01-20T05:01:19.696Z,20.90
2019-01-20T05:03:47.135Z,19.67
2019-01-20T05:06:14.533Z,20.77
2019-01-20T05:08:41.968Z,20.47
2019-01-20T05:11:09.392Z,20.70
2019-01-20T05:13:36.816Z,21.33
2019-01-20T05:16:04.248Z,20.63
2019-01-20T05:18:31.648Z,19.97
2019-01-20T05:20:59.085Z,19.70
2019-01-20T05:23:26.523Z,20.90
2019-01-20T05:25:53.916Z,21.70
2019-01-20T05:28:21.323Z,20.47
2019-01-20T05:30:48.751Z,21.37
2019-01-20T05:33:16.148Z,20.90
2019-01-20T05:35:43.573Z,21.17
2019-01-20T05:38:11.000Z,21.50
2019-01-20T05:40:38.419Z,21.30
2019-01-20T05:43:05.825Z,20.77
2019-01-20T05:45:33.253Z,21.37
2019-01-20T05:48:00.684Z,20.47
2019-01-20T05:50:28.104Z,21.57
2019-01-20T05:52:55.510Z,19.63
2019-01-20T05:55:22.948Z,22.53
2019-01-20T05:57:50.354Z,22.20
2019-01-20T06:00:20.477Z,20.83
2019-01-20T06:02:47.904Z,20.90
2019-01-20T06:05:15.304Z,21.37
2019-01-20T06:07:42.943Z,20.00
2019-01-20T06:10:10.148Z,21.60
2019-01-20T06:12:38.621Z,19.50
2019-01-20T06:15:04.968Z,20.47
2019-01-20T06:17:32.407Z,21.37
2019-01-20T06:19:59.804Z,20.17
2019-01-20T06:22:27.228Z,22.73
2019-01-20T06:24:54.634Z,20.57
2019-01-20T06:27:22.067Z,22.20
2019-01-20T06:29:49.467Z,20.13
2019-01-20T06:32:16.929Z,20.60
2019-01-20T06:34:44.339Z,22.03
2019-01-20T06:37:11.747Z,20.40
2019-01-20T06:39:40.303Z,20.60
2019-01-20T06:42:06.593Z,21.10
2019-01-20T06:44:35.612Z,21.00
2019-01-20T06:47:01.428Z,19.67
2019-01-20T06:49:28.858Z,21.87
2019-01-20T06:51:56.268Z,21.50
2019-01-20T06:54:23.958Z,21.30
2019-01-20T06:56:51.396Z,19.63
2019-01-20T06:59:18.797Z,21.40
2019-01-20T07:01:46.237Z,20.87
2019-01-20T07:04:15.222Z,22.30
2019-01-20T07:06:41.045Z,20.03
2019-01-20T07:09:10.050Z,22.00
2019-01-20T07:11:35.899Z,21.20
2019-01-20T07:14:03.329Z,22.47
2019-01-20T07:16:30.763Z,21.90
2019-01-20T07:18:58.175Z,20.30
2019-01-20T07:21:25.591Z,21.33
2019-01-20T07:23:53.020Z,22.57
2019-01-20T07:26:20.462Z,21.53
2019-01-20T07:28:47.868Z,22.80
2019-01-20T07:31:15.280Z,21.60
2019-01-20T07:33:45.499Z,21.53
2019-01-20T07:36:12.993Z,22.03
2019-01-20T07:38:40.321Z,21.20
2019-01-20T07:41:07.744Z,22.33
2019-01-20T07:43:35.187Z,22.90
2019-01-20T07:46:02.617Z,22.40
2019-01-20T07:48:30.183Z,21.67
2019-01-20T07:50:57.469Z,21.40
2019-01-20T07:53:24.898Z,22.73
2019-01-20T07:55:52.336Z,21.10
2019-01-20T07:58:19.740Z,22.73
2019-01-20T08:00:47.176Z,21.53
2019-01-20T08:03:14.578Z,21.30
2019-01-20T08:05:41.990Z,23.33
2019-01-20T08:08:09.428Z,22.33
2019-01-20T08:10:36.882Z,21.97
2019-01-20T08:13:04.300Z,22.70
2019-01-20T08:15:31.711Z,24.13
2019-01-20T08:17:59.115Z,24.10
2019-01-20T08:20:26.518Z,24.03
2019-01-20T08:22:53.947Z,29.97
2019-01-20T08:25:21.341Z,30.37
2019-01-20T08:27:48.771Z,25.47
2019-01-20T08:30:16.172Z,26.23
2019-01-20T08:32:43.603Z,24.50
2019-01-20T08:35:11.026Z,23.90
2019-01-20T08:37:38.452Z,24.50
2019-01-20T08:40:05.860Z,24.23
2019-01-20T08:42:33.340Z,27.58
2019-01-20T08:45:00.759Z,24.60
2019-01-20T08:47:30.877Z,23.80
2019-01-20T08:49:58.313Z,24.53
2019-01-20T08:52:25.711Z,25.43
2019-01-20T08:54:53.154Z,24.33
2019-01-20T08:57:20.575Z,24.50
2019-01-20T08:59:48.005Z,23.53
2019-01-20T09:02:15.410Z,23.40
2019-01-20T09:04:42.841Z,23.67
2019-01-20T09:07:10.541Z,25.40
2019-01-20T09:09:37.956Z,23.23
2019-01-20T09:12:05.380Z,25.40
2019-01-20T09:14:32.792Z,23.30
2019-01-20T09:17:00.180Z,24.30
2019-01-20T09:19:27.610Z,24.50
2019-01-20T09:21:55.033Z,24.07
2019-01-20T09:24:22.463Z,22.53
2019-01-20T09:26:49.896Z,23.63
2019-01-20T09:29:17.308Z,25.30
2019-01-20T09:31:44.734Z,24.10
2019-01-20T09:34:12.132Z,25.13
2019-01-20T09:36:39.570Z,24.23
2019-01-20T09:39:06.975Z,23.03
2019-01-20T09:41:34.422Z,23.33
2019-01-20T09:44:01.832Z,22.90
2019-01-20T09:46:29.265Z,23.57
2019-01-20T09:48:56.717Z,23.13
2019-01-20T09:51:24.121Z,23.20
2019-01-20T09:53:51.547Z,23.40
2019-01-20T09:56:18.979Z,24.57
2019-01-20T09:58:48.580Z,23.00
2019-01-20T10:01:15.980Z,23.47
2019-01-20T10:03:43.424Z,23.70
2019-01-20T10:06:10.882Z,23.03
2019-01-20T10:08:38.305Z,23.37
2019-01-20T10:11:05.726Z,24.80
2019-01-20T10:13:33.174Z,22.40
2019-01-20T10:16:00.578Z,23.67
2019-01-20T10:18:28.026Z,22.50
2019-01-20T10:20:55.441Z,22.90
2019-01-20T10:23:22.854Z,23.43
2019-01-20T10:25:50.317Z,23.57
2019-01-20T10:28:17.734Z,24.60
2019-01-20T10:30:45.139Z,23.10
2019-01-20T10:33:12.563Z,22.77
2019-01-20T10:35:40.025Z,23.03
2019-01-20T10:38:07.445Z,24.00
2019-01-20T10:40:34.853Z,21.10
2019-01-20T10:43:02.286Z,22.63
2019-01-20T10:45:32.124Z,21.93
2019-01-20T10:47:59.543Z,22.37
2019-01-20T10:50:26.966Z,22.37
2019-01-20T10:52:54.377Z,23.10
2019-01-20T10:55:21.811Z,22.07
2019-01-20T10:57:49.226Z,24.40
2019-01-20T11:00:22.745Z,22.30
2019-01-20T11:02:50.170Z,21.63
2019-01-20T11:05:17.581Z,22.47
2019-01-20T11:07:47.863Z,21.00
2019-01-20T11:10:15.272Z,21.87
2019-01-20T11:12:42.695Z,22.30
2019-01-20T11:15:12.549Z,24.10
2019-01-20T11:17:39.985Z,21.10
2019-01-20T11:20:07.745Z,21.17
2019-01-20T11:22:35.175Z,21.47
2019-01-20T11:25:02.574Z,24.17
2019-01-20T11:27:30.036Z,22.40
2019-01-20T11:29:57.430Z,22.40
2019-01-20T11:32:24.850Z,23.37
2019-01-20T11:34:52.274Z,23.40
2019-01-20T11:37:19.741Z,24.13
2019-01-20T11:39:47.152Z,23.63
2019-01-20T11:42:14.582Z,23.07
2019-01-20T11:44:42.007Z,22.30
2019-01-20T11:47:09.536Z,23.93
2019-01-20T11:49:36.853Z,24.10
2019-01-20T11:52:04.253Z,23.10
2019-01-20T11:54:31.682Z,23.63
2019-01-20T11:56:59.107Z,23.73
2019-01-20T11:59:26.577Z,26.57
2019-01-20T12:01:53.990Z,23.20
2019-01-20T12:04:21.439Z,23.93
2019-01-20T12:06:48.842Z,23.77
2019-01-20T12:09:16.559Z,22.27
2019-01-20T12:11:43.989Z,22.40
2019-01-20T12:14:11.391Z,20.37
2019-01-20T12:16:38.835Z,20.27
2019-01-20T12:19:06.260Z,21.27
2019-01-20T12:21:33.665Z,19.33
2019-01-20T12:24:01.092Z,19.43
2019-01-20T12:26:28.511Z,21.67
2019-01-20T12:28:55.956Z,20.80
2019-01-20T12:31:23.360Z,22.43
2019-01-20T12:33:50.769Z,23.50
2019-01-20T12:36:18.180Z,19.07
2019-01-20T12:38:45.578Z,18.40
2019-01-20T12:41:13.004Z,17.53
2019-01-20T12:43:40.418Z,19.10
2019-01-20T12:46:07.853Z,18.90
2019-01-20T12:48:35.258Z,18.43
2019-01-20T12:51:02.681Z,18.47
2019-01-20T12:53:30.111Z,19.90
2019-01-20T12:55:57.610Z,18.00
2019-01-20T12:58:25.033Z,17.87
2019-01-20T13:00:52.436Z,18.40
2019-01-20T13:03:19.860Z,19.00
2019-01-20T13:05:47.269Z,22.87
2019-01-20T13:08:14.704Z,17.17
2019-01-20T13:10:42.102Z,19.50
2019-01-20T13:13:09.544Z,18.90
2019-01-20T13:15:36.955Z,19.57
2019-01-20T13:18:04.354Z,18.67
2019-01-20T13:20:31.787Z,19.13
2019-01-20T13:22:59.226Z,19.17
2019-01-20T13:25:26.621Z,19.53
2019-01-20T13:27:54.028Z,21.73
2019-01-20T13:30:21.467Z,22.17
2019-01-20T13:32:48.867Z,20.37
2019-01-20T13:35:16.285Z,17.67
2019-01-20T13:37:46.477Z,17.93
2019-01-20T13:40:16.757Z,18.03
2019-01-20T13:42:44.147Z,20.90
2019-01-20T13:45:11.599Z,18.77
2019-01-20T13:47:39.012Z,17.90
2019-01-20T13:50:06.422Z,19.73
2019-01-20T13:52:33.848Z,16.97
2019-01-20T13:55:01.260Z,17.60
2019-01-20T13:57:28.682Z,18.87
2019-01-20T13:59:56.121Z,18.53
2019-01-20T14:02:23.558Z,17.83
2019-01-20T14:04:51.028Z,17.73
2019-01-20T14:07:18.411Z,18.80
2019-01-20T14:09:45.855Z,18.20
2019-01-20T14:12:13.275Z,15.60
2019-01-20T14:14:40.690Z,16.03
2019-01-20T14:17:08.203Z,17.20
2019-01-20T14:19:35.611Z,17.67
2019-01-20T14:22:03.039Z,15.47
2019-01-20T14:24:30.438Z,15.77
2019-01-20T14:26:57.876Z,15.30
2019-01-20T14:29:25.280Z,15.67
2019-01-20T14:31:52.769Z,14.93
2019-01-20T14:34:20.195Z,15.10
2019-01-20T14:36:47.620Z,15.13
2019-01-20T14:39:15.039Z,14.83
2019-01-20T14:41:42.444Z,15.23
2019-01-20T14:44:09.877Z,14.67
2019-01-20T14:46:37.284Z,14.07
2019-01-20T14:49:07.208Z,15.50
2019-01-20T14:51:34.649Z,14.87
2019-01-20T14:54:02.084Z,15.30
2019-01-20T14:56:29.492Z,16.30
2019-01-20T14:58:56.911Z,15.47
2019-01-20T15:01:24.342Z,15.87
2019-01-20T15:03:51.772Z,16.33
2019-01-20T15:06:20.927Z,16.93
2019-01-20T15:08:48.352Z,16.70
2019-01-20T15:11:15.810Z,16.10
2019-01-20T15:13:43.216Z,17.33
2019-01-20T15:16:10.635Z,17.60
2019-01-20T15:18:38.306Z,16.63
2019-01-20T15:21:05.757Z,16.87
2019-01-20T15:23:33.163Z,16.47
2019-01-20T15:26:00.571Z,16.90
2019-01-20T15:28:28.048Z,17.87
2019-01-20T15:30:55.459Z,16.43
2019-01-20T15:33:22.872Z,17.47
2019-01-20T15:35:50.294Z,17.60
2019-01-20T15:38:17.758Z,17.83
2019-01-20T15:40:46.372Z,18.30
2019-01-20T15:43:12.566Z,18.47
2019-01-20T15:45:39.992Z,18.10
2019-01-20T15:48:07.415Z,19.50
2019-01-20T15:50:34.868Z,18.63
2019-01-20T15:53:02.283Z,18.30
2019-01-20T15:55:29.690Z,17.93
2019-01-20T15:57:57.123Z,16.93
2019-01-20T16:00:24.547Z,16.83
2019-01-20T16:02:51.959Z,16.70
2019-01-20T16:05:19.385Z,17.03
2019-01-20T16:07:46.818Z,18.53
2019-01-20T16:10:14.221Z,17.90
2019-01-20T16:12:41.665Z,18.97
2019-01-20T16:15:14.632Z,18.80
2019-01-20T16:17:42.076Z,19.07
2019-01-20T16:20:09.497Z,21.93
2019-01-20T16:22:36.949Z,20.10
2019-01-20T16:25:04.364Z,18.83
2019-01-20T16:27:31.807Z,18.70
2019-01-20T16:29:59.208Z,20.37
2019-01-20T16:32:26.615Z,19.57
2019-01-20T16:34:54.056Z,21.30
2019-01-20T16:37:21.462Z,19.20
2019-01-20T16:39:48.896Z,21.27
2019-01-20T16:42:16.314Z,20.73
2019-01-20T16:44:43.700Z,25.90
2019-01-20T16:47:11.128Z,23.87
2019-01-20T16:49:38.532Z,21.50
2019-01-20T16:52:05.954Z,23.23
2019-01-20T16:54:33.386Z,24.87
2019-01-20T16:57:00.838Z,25.67
2019-01-20T16:59:28.259Z,25.40
2019-01-20T17:01:55.689Z,25.20
2019-01-20T17:04:23.120Z,25.37
2019-01-20T17:06:50.534Z,24.60
2019-01-20T17:09:17.969Z,26.83
2019-01-20T17:11:45.395Z,24.10
2019-01-20T17:14:12.975Z,22.10
2019-01-20T17:16:40.416Z,22.13
2019-01-20T17:19:07.955Z,23.83
2019-01-20T17:21:35.385Z,24.37
2019-01-20T17:24:02.795Z,24.20
2019-01-20T17:26:30.222Z,24.80
2019-01-20T17:28:57.642Z,23.47
2019-01-20T17:31:25.073Z,24.90
2019-01-20T17:33:52.516Z,24.40
2019-01-20T17:36:19.951Z,24.83
2019-01-20T17:38:47.356Z,24.10
2019-01-20T17:41:14.763Z,23.70
2019-01-20T17:43:42.206Z,25.20
2019-01-20T17:46:09.629Z,22.17
2019-01-20T17:48:37.089Z,23.87
2019-01-20T17:51:04.552Z,24.87
2019-01-20T17:53:31.956Z,25.17
2019-01-20T17:55:59.396Z,23.20
2019-01-20T17:58:26.809Z,24.23
2019-01-20T18:00:54.233Z,24.63
2019-01-20T18:03:21.653Z,23.47
2019-01-20T18:05:49.081Z,22.87
2019-01-20T18:08:16.494Z,23.47
2019-01-20T18:10:43.919Z,23.77
2019-01-20T18:13:11.327Z,24.90
2019-01-20T18:15:38.779Z,24.27
2019-01-20T18:18:06.187Z,26.37
2019-01-20T18:20:33.593Z,26.77
2019-01-20T18:23:01.024Z,26.13
2019-01-20T18:25:28.470Z,26.03
2019-01-20T18:27:55.910Z,29.13
2019-01-20T18:30:28.899Z,28.63
2019-01-20T18:32:56.306Z,27.60
2019-01-20T18:35:23.749Z,26.93
2019-01-20T18:38:10.778Z,26.73
2019-01-20T18:40:38.219Z,25.87
2019-01-20T18:43:05.655Z,27.90
2019-01-20T18:45:33.061Z,27.53
2019-01-20T18:48:00.466Z,25.27
2019-01-20T18:50:27.912Z,23.90
2019-01-20T18:52:55.350Z,23.67
2019-01-20T18:55:22.758Z,24.87
2019-01-20T18:57:50.182Z,24.80
2019-01-20T19:00:20.403Z,22.80
2019-01-20T19:02:47.816Z,24.90
2019-01-20T19:05:15.262Z,24.30
2019-01-20T19:07:42.680Z,27.93
2019-01-20T19:10:10.119Z,30.50
2019-01-20T19:12:37.538Z,31.60
2019-01-20T19:15:04.971Z,25.80
2019-01-20T19:17:32.382Z,33.63
2019-01-20T19:19:59.826Z,28.67
2019-01-20T19:22:27.239Z,28.00
2019-01-20T19:24:54.661Z,26.30
2019-01-20T19:27:22.110Z,25.87
2019-01-20T19:29:49.576Z,26.13
2019-01-20T19:32:17.038Z,30.83
2019-01-20T19:34:44.442Z,30.97
2019-01-20T19:37:11.882Z,32.40
2019-01-20T19:39:39.307Z,28.03
2019-01-20T19:42:06.801Z,29.03
2019-01-20T19:44:34.212Z,27.73
2019-01-20T19:47:01.642Z,26.77
2019-01-20T19:49:29.078Z,28.40
2019-01-20T19:51:56.517Z,28.00
2019-01-20T19:54:23.925Z,29.33
2019-01-20T19:56:51.344Z,33.87
2019-01-20T19:59:18.747Z,34.60
2019-01-20T20:01:46.237Z,32.67
2019-01-20T20:04:13.656Z,26.50
2019-01-20T20:06:41.096Z,26.50
2019-01-20T20:09:08.479Z,28.23
2019-01-20T20:11:35.926Z,26.93
2019-01-20T20:14:03.395Z,26.00
2019-01-20T20:16:30.814Z,26.87
2019-01-20T20:18:58.262Z,25.47
2019-01-20T20:21:25.782Z,26.33
2019-01-20T20:23:53.281Z,27.03
2019-01-20T20:26:20.710Z,26.37
2019-01-20T20:28:48.167Z,27.07
2019-01-20T20:31:15.597Z,26.07
2019-01-20T20:33:43.119Z,27.67
2019-01-20T20:36:10.560Z,26.03
2019-01-20T20:38:40.909Z,26.40
2019-01-20T20:41:08.350Z,27.47
2019-01-20T20:43:35.886Z,31.87
2019-01-20T20:46:03.344Z,31.97
2019-01-20T20:48:30.750Z,34.33
2019-01-20T20:50:58.214Z,28.03
2019-01-20T20:53:25.637Z,27.80
2019-01-20T20:55:53.131Z,28.07
2019-01-20T20:58:20.555Z,28.37
2019-01-20T21:00:48.129Z,27.63
2019-01-20T21:03:15.667Z,27.90
2019-01-20T21:05:43.073Z,28.93
2019-01-20T21:08:10.597Z,27.87
2019-01-20T21:10:38.007Z,28.60
2019-01-20T21:13:05.447Z,27.67
2019-01-20T21:15:32.863Z,29.00
2019-01-20T21:18:00.305Z,30.53
2019-01-20T21:20:27.711Z,29.77
2019-01-20T21:22:55.147Z,28.27
2019-01-20T21:25:22.642Z,26.40
2019-01-20T21:27:50.049Z,26.80
2019-01-20T21:30:17.502Z,25.10
2019-01-20T21:32:44.924Z,25.63
2019-01-20T21:35:12.723Z,24.80
2019-01-20T21:37:39.860Z,22.80
2019-01-20T21:40:07.255Z,25.73
2019-01-20T21:42:34.985Z,26.63
2019-01-20T21:45:02.424Z,28.40
2019-01-20T21:47:29.861Z,28.70
2019-01-20T21:49:57.265Z,28.13
2019-01-20T21:52:24.700Z,29.47
2019-01-20T21:54:52.141Z,29.17
2019-01-20T21:57:19.623Z,31.87
2019-01-20T21:59:46.996Z,28.53
2019-01-20T22:02:14.426Z,28.20
2019-01-20T22:04:41.867Z,28.07
2019-01-20T22:07:09.292Z,28.20
2019-01-20T22:09:36.711Z,29.57
2019-01-20T22:12:04.176Z,29.13
2019-01-20T22:14:31.623Z,30.70
2019-01-20T22:16:59.049Z,29.10
2019-01-20T22:19:26.454Z,30.53
2019-01-20T22:21:53.896Z,29.27
2019-01-20T22:24:21.331Z,29.07
2019-01-20T22:26:48.746Z,28.63
2019-01-20T22:29:16.146Z,28.10
2019-01-20T22:31:43.914Z,28.93
2019-01-20T22:34:11.310Z,27.23
2019-01-20T22:36:38.746Z,28.10
2019-01-20T22:39:06.161Z,28.67
2019-01-20T22:41:33.584Z,25.97
2019-01-20T22:44:00.986Z,27.80
2019-01-20T22:46:28.406Z,26.67
2019-01-20T22:48:55.853Z,26.07
2019-01-20T22:51:23.251Z,27.83
2019-01-20T22:53:50.675Z,27.80
2019-01-20T22:56:18.083Z,26.90
2019-01-20T22:58:45.519Z,28.30
2019-01-20T23:01:12.918Z,25.97
2019-01-20T23:03:40.339Z,27.70
2019-01-20T23:06:07.750Z,27.30
2019-01-20T23:08:35.166Z,25.87
2019-01-20T23:11:02.574Z,27.87
2019-01-20T23:13:30.024Z,26.83
2019-01-20T23:15:57.431Z,26.40
2019-01-20T23:18:24.889Z,27.13
2019-01-20T23:20:52.323Z,29.07
2019-01-20T23:23:19.783Z,29.07
2019-01-20T23:25:47.197Z,27.83
2019-01-20T23:28:14.645Z,27.87
2019-01-20T23:30:42.056Z,26.53
2019-01-20T23:33:09.458Z,29.70
2019-01-20T23:35:36.893Z,28.67
2019-01-20T23:38:04.300Z,26.53
2019-01-20T23:40:31.727Z,25.60
2019-01-20T23:42:59.129Z,25.83
2019-01-20T23:45:26.560Z,25.83
2019-01-20T23:47:54.063Z,25.43
2019-01-20T23:50:21.435Z,25.37
2019-01-20T23:52:48.853Z,25.17
2019-01-20T23:55:16.216Z,24.13
2019-01-20T23:57:43.659Z,24.90
